createdAt,value
2022-08-29T00:02:45.845Z,15.87
2022-08-29T00:05:37.706Z,15.87
2022-08-29T00:08:29.655Z,15.82
2022-08-29T00:11:19.193Z,15.83
2022-08-29T00:14:20.875Z,15.79
2022-08-29T00:17:12.517Z,15.75
2022-08-29T00:20:01.979Z,15.75
2022-08-29T00:22:51.242Z,15.71
2022-08-29T00:25:46.357Z,15.67
2022-08-29T00:28:35.656Z,15.65
2022-08-29T00:31:26.540Z,15.63
2022-08-29T00:34:15.854Z,15.56
2022-08-29T00:37:05.350Z,15.53
2022-08-29T00:39:55.066Z,15.49
2022-08-29T00:42:44.814Z,15.42
2022-08-29T00:45:35.561Z,15.40
2022-08-29T00:48:26.447Z,15.39
2022-08-29T00:51:22.812Z,15.36
2022-08-29T00:54:15.693Z,15.30
2022-08-29T00:57:05.311Z,15.26
2022-08-29T00:59:54.970Z,15.23
2022-08-29T01:02:44.807Z,15.22
2022-08-29T01:05:37.542Z,15.16
2022-08-29T01:08:27.193Z,15.12
2022-08-29T01:11:36.793Z,15.11
2022-08-29T01:14:28.929Z,15.07
2022-08-29T01:17:24.491Z,15.07
2022-08-29T01:20:26.149Z,15.02
2022-08-29T01:23:24.861Z,14.99
2022-08-29T01:26:15.571Z,14.98
2022-08-29T01:29:05.637Z,14.96
2022-08-29T01:31:57.981Z,14.91
2022-08-29T01:34:47.497Z,14.89
2022-08-29T01:37:43.169Z,14.89
2022-08-29T01:40:36.231Z,14.87
2022-08-29T01:43:28.571Z,14.87
2022-08-29T01:46:23.583Z,14.86
2022-08-29T01:49:14.642Z,14.89
2022-08-29T01:52:06.673Z,14.87
2022-08-29T01:54:56.258Z,14.88
2022-08-29T01:57:45.547Z,14.87
2022-08-29T02:00:36.987Z,14.86
2022-08-29T02:03:26.283Z,14.80
2022-08-29T02:06:16.063Z,14.80
2022-08-29T02:09:05.925Z,14.76
2022-08-29T02:11:56.004Z,14.73
2022-08-29T02:14:46.229Z,14.70
2022-08-29T02:17:39.245Z,14.67
2022-08-29T02:20:30.650Z,14.65
2022-08-29T02:23:30.570Z,14.63
2022-08-29T02:26:22.564Z,14.59
2022-08-29T02:29:12.558Z,14.57
2022-08-29T02:32:02.320Z,14.50
2022-08-29T02:34:54.805Z,14.50
2022-08-29T02:37:44.108Z,14.48
2022-08-29T02:40:33.607Z,14.50
2022-08-29T02:43:24.271Z,14.49
2022-08-29T02:46:19.870Z,14.47
2022-08-29T02:49:09.113Z,14.46
2022-08-29T02:51:59.644Z,14.44
2022-08-29T02:54:49.927Z,14.41
2022-08-29T02:57:39.529Z,14.38
2022-08-29T03:00:29.627Z,14.35
2022-08-29T03:03:19.459Z,14.30
2022-08-29T03:06:09.330Z,14.30
2022-08-29T03:08:59.925Z,14.25
2022-08-29T03:11:49.119Z,14.23
2022-08-29T03:14:38.388Z,14.21
2022-08-29T03:17:27.735Z,14.18
2022-08-29T03:20:21.118Z,14.12
2022-08-29T03:23:11.709Z,14.11
2022-08-29T03:26:02.450Z,14.05
2022-08-29T03:28:51.883Z,14.02
2022-08-29T03:31:41.323Z,13.99
2022-08-29T03:34:30.639Z,13.95
2022-08-29T03:37:24.974Z,13.92
2022-08-29T03:40:16.063Z,13.89
2022-08-29T03:43:06.664Z,13.89
2022-08-29T03:45:55.929Z,13.85
2022-08-29T03:48:45.320Z,13.79
2022-08-29T03:51:34.867Z,13.76
2022-08-29T03:54:24.506Z,13.75
2022-08-29T03:57:13.914Z,13.70
2022-08-29T04:00:12.034Z,13.66
2022-08-29T04:03:01.395Z,13.64
2022-08-29T04:05:50.975Z,13.62
2022-08-29T04:08:44.677Z,13.61
2022-08-29T04:11:36.851Z,13.60
2022-08-29T04:14:26.836Z,13.54
2022-08-29T04:17:17.274Z,13.57
2022-08-29T04:20:09.309Z,13.56
2022-08-29T04:23:00.521Z,13.51
2022-08-29T04:25:49.674Z,13.48
2022-08-29T04:28:38.933Z,13.49
2022-08-29T04:31:29.970Z,13.46
2022-08-29T04:34:21.356Z,13.49
2022-08-29T04:37:10.669Z,13.47
2022-08-29T04:40:01.704Z,13.49
2022-08-29T04:42:52.272Z,13.49
2022-08-29T04:45:41.646Z,13.46
2022-08-29T04:48:31.011Z,13.49
2022-08-29T04:51:23.426Z,13.51
2022-08-29T04:54:12.670Z,13.53
2022-08-29T04:57:05.381Z,13.55
2022-08-29T04:59:56.281Z,13.58
2022-08-29T05:02:46.926Z,13.59
2022-08-29T05:05:36.653Z,13.57
2022-08-29T05:08:27.982Z,13.62
2022-08-29T05:11:22.642Z,13.66
2022-08-29T05:14:12.530Z,13.69
2022-08-29T05:17:01.689Z,13.73
2022-08-29T05:19:51.190Z,13.71
2022-08-29T05:22:42.109Z,13.74
2022-08-29T05:25:32.699Z,13.76
2022-08-29T05:28:22.045Z,13.82
2022-08-29T05:31:14.335Z,13.83
2022-08-29T05:34:16.299Z,13.83
2022-08-29T05:37:19.304Z,13.85
2022-08-29T05:40:09.995Z,13.89
2022-08-29T05:43:01.988Z,13.95
2022-08-29T05:45:51.273Z,13.97
2022-08-29T05:48:43.402Z,13.99
2022-08-29T05:51:37.299Z,14.05
2022-08-29T05:54:30.177Z,14.12
2022-08-29T05:57:23.257Z,14.19
2022-08-29T06:00:15.334Z,14.24
2022-08-29T06:03:04.967Z,14.30
2022-08-29T06:05:54.960Z,14.37
2022-08-29T06:08:44.226Z,14.45
2022-08-29T06:11:35.260Z,14.55
2022-08-29T06:14:24.611Z,14.65
2022-08-29T06:17:15.220Z,14.76
2022-08-29T06:20:09.772Z,14.86
2022-08-29T06:22:59.065Z,14.92
2022-08-29T06:25:57.009Z,15.02
2022-08-29T06:28:47.768Z,15.08
2022-08-29T06:31:37.923Z,15.12
2022-08-29T06:34:28.493Z,15.15
2022-08-29T06:37:18.088Z,15.23
2022-08-29T06:40:09.536Z,15.29
2022-08-29T06:42:59.963Z,15.35
2022-08-29T06:45:49.337Z,15.40
2022-08-29T06:48:38.421Z,15.46
2022-08-29T06:51:33.000Z,15.56
2022-08-29T06:54:25.075Z,15.60
2022-08-29T06:57:17.396Z,15.69
2022-08-29T07:00:21.839Z,15.78
2022-08-29T07:03:12.637Z,15.88
2022-08-29T07:06:02.150Z,15.95
2022-08-29T07:08:55.805Z,16.02
2022-08-29T07:11:45.699Z,16.09
2022-08-29T07:14:35.461Z,16.18
2022-08-29T07:17:25.618Z,16.29
2022-08-29T07:20:16.717Z,16.39
2022-08-29T07:23:06.345Z,16.49
2022-08-29T07:26:08.948Z,16.65
2022-08-29T07:29:03.597Z,16.76
2022-08-29T07:31:53.227Z,16.90
2022-08-29T07:34:42.612Z,17.04
2022-08-29T07:37:31.814Z,17.16
2022-08-29T07:40:22.237Z,17.30
2022-08-29T07:43:17.845Z,17.50
2022-08-29T07:46:10.849Z,17.68
2022-08-29T07:49:01.477Z,17.82
2022-08-29T07:51:51.938Z,18.00
2022-08-29T07:54:41.246Z,18.17
2022-08-29T07:57:30.876Z,18.34
2022-08-29T08:00:22.594Z,18.52
2022-08-29T08:03:17.192Z,18.73
2022-08-29T08:06:07.432Z,18.94
2022-08-29T08:08:57.184Z,19.18
2022-08-29T08:11:46.556Z,19.45
2022-08-29T08:14:36.334Z,19.69
2022-08-29T08:17:27.028Z,19.94
2022-08-29T08:20:16.474Z,20.25
2022-08-29T08:23:09.026Z,20.52
2022-08-29T08:25:58.359Z,20.82
2022-08-29T08:28:48.100Z,21.17
2022-08-29T08:31:37.523Z,21.46
2022-08-29T08:34:29.380Z,21.79
2022-08-29T08:37:24.192Z,22.16
2022-08-29T08:40:26.656Z,22.51
2022-08-29T08:43:26.864Z,22.91
2022-08-29T08:46:31.520Z,23.31
2022-08-29T08:49:44.672Z,23.70
2022-08-29T08:52:43.714Z,24.06
2022-08-29T08:55:42.745Z,24.41
2022-08-29T08:58:37.430Z,24.73
2022-08-29T09:01:33.456Z,25.09
2022-08-29T09:04:39.807Z,25.42
2022-08-29T09:07:51.044Z,25.74
2022-08-29T09:10:58.745Z,26.15
2022-08-29T09:14:04.172Z,26.50
2022-08-29T09:16:59.912Z,26.79
2022-08-29T09:19:51.449Z,26.98
2022-08-29T09:22:53.432Z,27.21
2022-08-29T09:25:42.692Z,27.52
2022-08-29T09:28:31.904Z,27.83
2022-08-29T09:31:27.600Z,28.11
2022-08-29T09:34:57.411Z,28.43
2022-08-29T09:37:59.038Z,28.74
2022-08-29T09:40:55.702Z,28.94
2022-08-29T09:43:52.437Z,29.20
2022-08-29T09:46:44.640Z,29.41
2022-08-29T09:49:34.744Z,29.64
2022-08-29T09:52:27.341Z,29.83
2022-08-29T09:55:31.319Z,30.04
2022-08-29T09:58:37.604Z,30.30
2022-08-29T10:01:32.283Z,30.42
2022-08-29T10:04:40.456Z,30.72
2022-08-29T10:07:33.741Z,30.90
2022-08-29T10:10:35.787Z,31.02
2022-08-29T10:13:34.489Z,31.17
2022-08-29T10:16:44.814Z,31.51
2022-08-29T10:19:34.563Z,31.63
2022-08-29T10:22:36.981Z,31.89
2022-08-29T10:25:37.821Z,31.90
2022-08-29T10:28:39.449Z,32.00
2022-08-29T10:31:38.111Z,32.16
2022-08-29T10:34:52.421Z,32.09
2022-08-29T10:37:57.508Z,32.29
2022-08-29T10:40:56.366Z,32.45
2022-08-29T10:44:01.269Z,32.59
2022-08-29T10:47:18.155Z,32.86
2022-08-29T10:50:45.264Z,33.04
2022-08-29T10:53:42.672Z,33.10
2022-08-29T10:56:43.001Z,33.10
2022-08-29T10:59:59.523Z,33.29
2022-08-29T11:03:08.203Z,33.37
2022-08-29T11:06:07.480Z,33.63
2022-08-29T11:09:08.732Z,33.78
2022-08-29T11:12:11.091Z,34.11
2022-08-29T11:15:15.366Z,34.42
2022-08-29T11:18:11.342Z,34.46
2022-08-29T11:21:09.461Z,34.44
2022-08-29T11:24:03.033Z,34.44
2022-08-29T11:27:10.373Z,34.42
2022-08-29T11:30:13.860Z,34.49
2022-08-29T11:33:18.835Z,34.64
2022-08-29T11:36:33.745Z,34.46
2022-08-29T11:40:09.725Z,34.36
2022-08-29T11:43:04.015Z,34.43
2022-08-29T11:46:10.091Z,34.45
2022-08-29T11:49:40.569Z,34.45
2022-08-29T11:52:31.700Z,34.46
2022-08-29T11:55:33.220Z,34.49
2022-08-29T11:58:48.049Z,34.54
2022-08-29T12:02:02.073Z,34.67
2022-08-29T12:04:57.037Z,34.71
2022-08-29T12:07:51.921Z,34.72
2022-08-29T12:10:55.683Z,34.89
2022-08-29T12:14:05.029Z,34.77
2022-08-29T12:16:54.306Z,34.93
2022-08-29T12:19:54.789Z,35.06
2022-08-29T12:23:00.438Z,34.84
2022-08-29T12:29:10.171Z,34.52
2022-08-29T12:32:42.475Z,34.79
2022-08-29T12:36:08.052Z,35.05
2022-08-29T12:39:20.190Z,35.09
2022-08-29T12:42:28.663Z,35.22
2022-08-29T12:45:27.063Z,35.38
2022-08-29T12:48:23.863Z,35.28
2022-08-29T12:51:39.576Z,35.20
2022-08-29T12:54:35.327Z,35.24
2022-08-29T12:57:33.116Z,35.11
2022-08-29T13:00:28.094Z,35.13
2022-08-29T13:03:21.435Z,34.71
2022-08-29T13:06:15.665Z,34.88
2022-08-29T13:09:06.109Z,35.01
2022-08-29T13:12:15.677Z,34.96
2022-08-29T13:15:08.413Z,34.87
2022-08-29T13:17:59.138Z,34.70
2022-08-29T13:21:03.906Z,34.57
2022-08-29T13:24:10.437Z,34.68
2022-08-29T13:27:04.990Z,34.80
2022-08-29T13:30:02.103Z,34.90
2022-08-29T13:32:53.800Z,34.98
2022-08-29T13:35:44.507Z,35.04
2022-08-29T13:38:36.573Z,35.11
2022-08-29T13:41:29.548Z,35.12
2022-08-29T13:44:21.430Z,34.83
2022-08-29T13:47:17.358Z,34.83
2022-08-29T13:50:10.708Z,34.80
2022-08-29T13:53:01.290Z,34.86
2022-08-29T13:55:50.481Z,34.84
2022-08-29T13:58:40.027Z,34.62
2022-08-29T14:01:29.804Z,34.71
2022-08-29T14:04:37.540Z,34.69
2022-08-29T14:07:34.279Z,34.53
2022-08-29T14:10:25.138Z,34.77
2022-08-29T14:13:14.500Z,34.84
2022-08-29T14:16:04.996Z,34.92
2022-08-29T14:18:54.702Z,35.02
2022-08-29T14:21:43.872Z,35.07
2022-08-29T14:24:34.538Z,35.12
2022-08-29T14:27:25.297Z,35.04
2022-08-29T14:30:19.214Z,34.88
2022-08-29T14:33:09.147Z,34.80
2022-08-29T14:35:58.457Z,34.77
2022-08-29T14:38:50.137Z,34.68
2022-08-29T14:41:39.706Z,34.74
2022-08-29T14:44:30.298Z,34.72
2022-08-29T14:47:19.704Z,34.68
2022-08-29T14:50:12.677Z,34.65
2022-08-29T14:53:02.151Z,34.66
2022-08-29T14:55:51.449Z,34.78
2022-08-29T14:58:40.834Z,34.84
2022-08-29T15:01:31.708Z,34.80
2022-08-29T15:04:22.706Z,34.75
2022-08-29T15:07:26.534Z,34.74
2022-08-29T15:10:19.498Z,34.76
2022-08-29T15:13:09.138Z,34.68
2022-08-29T15:15:59.895Z,34.67
2022-08-29T15:22:07.785Z,34.84
2022-08-29T15:24:57.164Z,34.92
2022-08-29T15:27:47.624Z,34.89
2022-08-29T15:30:36.976Z,34.85
2022-08-29T15:33:26.160Z,34.61
2022-08-29T15:36:16.780Z,34.52
2022-08-29T15:39:07.156Z,34.29
2022-08-29T15:41:57.341Z,34.14
2022-08-29T15:44:46.855Z,34.17
2022-08-29T15:47:46.110Z,34.22
2022-08-29T15:50:39.097Z,34.21
2022-08-29T15:53:29.754Z,34.13
2022-08-29T15:56:18.968Z,34.17
2022-08-29T15:59:11.184Z,34.06
2022-08-29T16:02:00.591Z,33.91
2022-08-29T16:04:53.678Z,33.71
2022-08-29T16:07:48.689Z,33.52
2022-08-29T16:10:39.780Z,33.31
2022-08-29T16:13:29.039Z,33.15
2022-08-29T16:16:18.263Z,32.91
2022-08-29T16:19:10.212Z,32.62
2022-08-29T16:22:00.282Z,32.37
2022-08-29T16:25:40.258Z,32.17
2022-08-29T16:28:35.664Z,32.04
2022-08-29T16:31:25.220Z,31.88
2022-08-29T16:34:14.585Z,31.70
2022-08-29T16:37:03.831Z,31.64
2022-08-29T16:39:52.998Z,31.61
2022-08-29T16:42:55.414Z,31.66
2022-08-29T16:45:49.697Z,31.60
2022-08-29T16:48:43.130Z,31.57
2022-08-29T16:51:32.327Z,31.59
2022-08-29T16:54:27.713Z,31.52
2022-08-29T16:57:44.005Z,31.38
2022-08-29T17:00:40.962Z,31.31
2022-08-29T17:03:42.485Z,31.24
2022-08-29T17:06:32.747Z,31.14
2022-08-29T17:09:23.916Z,30.91
2022-08-29T17:12:13.208Z,30.70
2022-08-29T17:15:01.529Z,30.48
2022-08-29T17:17:51.458Z,30.28
2022-08-29T17:20:46.151Z,30.03
2022-08-29T17:23:36.983Z,29.73
2022-08-29T17:26:27.113Z,29.42
2022-08-29T17:29:17.588Z,29.12
2022-08-29T17:32:07.254Z,28.84
2022-08-29T17:34:56.409Z,28.56
2022-08-29T17:37:47.843Z,28.29
2022-08-29T17:40:38.322Z,28.04
2022-08-29T17:43:32.763Z,27.78
2022-08-29T17:46:22.537Z,27.52
2022-08-29T17:49:12.340Z,27.29
2022-08-29T17:52:01.497Z,27.05
2022-08-29T17:54:53.779Z,26.81
2022-08-29T17:57:43.054Z,26.60
2022-08-29T18:00:32.553Z,26.39
2022-08-29T18:03:21.741Z,26.13
2022-08-29T18:06:12.315Z,25.90
2022-08-29T18:09:05.034Z,25.70
2022-08-29T18:11:58.250Z,25.47
2022-08-29T18:14:48.043Z,25.24
2022-08-29T18:17:37.834Z,25.01
2022-08-29T18:20:27.476Z,24.82
2022-08-29T18:23:16.864Z,24.58
2022-08-29T18:26:07.351Z,24.37
2022-08-29T18:28:57.977Z,24.16
2022-08-29T18:31:47.654Z,23.97
2022-08-29T18:34:37.026Z,23.79
2022-08-29T18:37:26.328Z,23.60
2022-08-29T18:40:15.776Z,23.42
2022-08-29T18:43:04.989Z,23.24
2022-08-29T18:45:58.189Z,23.06
2022-08-29T18:48:48.284Z,22.88
2022-08-29T18:51:37.780Z,22.71
2022-08-29T18:54:27.377Z,22.54
2022-08-29T18:57:16.593Z,22.37
2022-08-29T19:00:11.330Z,22.20
2022-08-29T19:03:04.990Z,22.06
2022-08-29T19:05:54.500Z,21.91
2022-08-29T19:08:44.111Z,21.74
2022-08-29T19:11:33.777Z,21.62
2022-08-29T19:14:23.000Z,21.51
2022-08-29T19:17:12.297Z,21.38
2022-08-29T19:20:27.706Z,21.24
2022-08-29T19:23:17.463Z,21.10
2022-08-29T19:26:14.190Z,20.96
2022-08-29T19:29:09.386Z,20.84
2022-08-29T19:31:58.709Z,20.71
2022-08-29T19:34:50.908Z,20.58
2022-08-29T19:37:44.919Z,20.44
2022-08-29T19:40:39.158Z,20.34
2022-08-29T19:43:35.323Z,20.24
2022-08-29T19:46:25.548Z,20.11
2022-08-29T19:49:14.835Z,20.00
2022-08-29T19:52:05.170Z,19.88
2022-08-29T19:54:58.533Z,19.77
2022-08-29T19:57:51.505Z,19.65
2022-08-29T20:00:41.306Z,19.55
2022-08-29T20:03:32.092Z,19.47
2022-08-29T20:06:22.029Z,19.37
2022-08-29T20:09:11.909Z,19.27
2022-08-29T20:12:03.963Z,19.19
2022-08-29T20:14:53.593Z,19.12
2022-08-29T20:17:45.183Z,19.05
2022-08-29T20:20:36.684Z,18.96
2022-08-29T20:23:27.686Z,18.88
2022-08-29T20:26:17.668Z,18.80
2022-08-29T20:29:17.014Z,18.71
2022-08-29T20:32:07.198Z,18.61
2022-08-29T20:34:56.481Z,18.54
2022-08-29T20:37:44.950Z,18.46
2022-08-29T20:40:36.816Z,18.37
2022-08-29T20:43:26.077Z,18.30
2022-08-29T20:46:16.797Z,18.23
2022-08-29T20:49:06.014Z,18.15
2022-08-29T20:51:55.197Z,18.09
2022-08-29T20:54:46.269Z,18.01
2022-08-29T20:57:39.079Z,17.94
2022-08-29T21:00:28.445Z,17.87
2022-08-29T21:03:36.515Z,17.83
2022-08-29T21:06:26.627Z,17.78
2022-08-29T21:09:17.132Z,17.72
2022-08-29T21:12:07.572Z,17.67
2022-08-29T21:14:56.771Z,17.63
2022-08-29T21:17:46.272Z,17.58
2022-08-29T21:20:53.518Z,17.54
2022-08-29T21:23:43.357Z,17.48
2022-08-29T21:26:32.816Z,17.43
2022-08-29T21:29:25.599Z,17.36
2022-08-29T21:32:14.637Z,17.28
2022-08-29T21:35:07.366Z,17.21
2022-08-29T21:37:58.482Z,17.14
2022-08-29T21:40:50.642Z,17.06
2022-08-29T21:43:41.113Z,16.98
2022-08-29T21:46:33.358Z,16.95
2022-08-29T21:49:23.834Z,16.91
2022-08-29T21:52:13.527Z,16.83
2022-08-29T21:55:06.869Z,16.77
2022-08-29T21:57:59.725Z,16.70
2022-08-29T22:00:49.015Z,16.65
2022-08-29T22:03:38.770Z,16.57
2022-08-29T22:06:29.361Z,16.51
2022-08-29T22:09:19.174Z,16.47
2022-08-29T22:12:12.610Z,16.40
2022-08-29T22:15:25.246Z,16.33
2022-08-29T22:18:15.248Z,16.26
2022-08-29T22:21:05.041Z,16.20
2022-08-29T22:23:55.131Z,16.16
2022-08-29T22:26:46.256Z,16.10
2022-08-29T22:29:37.483Z,16.04
2022-08-29T22:32:26.993Z,15.99
2022-08-29T22:35:25.514Z,15.95
2022-08-29T22:38:14.826Z,15.93
2022-08-29T22:41:04.053Z,15.88
2022-08-29T22:44:35.867Z,15.80
2022-08-29T22:47:09.828Z,15.72
2022-08-29T22:50:01.048Z,15.68
2022-08-29T22:52:52.323Z,15.65
2022-08-29T22:55:42.542Z,15.62
2022-08-29T22:58:31.695Z,15.56
2022-08-29T23:01:20.893Z,15.51
2022-08-29T23:04:12.688Z,15.44
2022-08-29T23:07:04.066Z,15.41
2022-08-29T23:09:53.603Z,15.37
2022-08-29T23:12:43.135Z,15.30
2022-08-29T23:15:32.451Z,15.28
2022-08-29T23:18:25.003Z,15.23
2022-08-29T23:21:15.861Z,15.19
2022-08-29T23:24:06.992Z,15.18
2022-08-29T23:26:56.280Z,15.12
2022-08-29T23:29:45.899Z,15.05
2022-08-29T23:32:35.464Z,15.00
2022-08-29T23:35:25.054Z,14.94
2022-08-29T23:38:17.531Z,14.91
2022-08-29T23:41:06.918Z,14.88
2022-08-29T23:43:56.200Z,14.84
2022-08-29T23:46:45.577Z,14.83
2022-08-29T23:49:34.963Z,14.82
2022-08-29T23:52:24.350Z,14.80
2022-08-29T23:55:19.920Z,14.81
2022-08-29T23:58:10.265Z,14.78
